Time;durP1;ratioP1;P1;durP2;ratioP2;P2;SDS_P1;SDS_P2;PMS_P1;PMS_P2;Temp;Humidity;BMP_temperature;BMP_pressure;BME280_temperature;BME280_humidity;BME280_pressure;Samples;Min_cycle;Max_cycle;Signal;HPM_P1;HPM_P2
2023/05/07 00:00:34;;;;;;;;;;;12.30;99.90;;;;;;5086806;28;19929;-90
2023/05/07 00:03:01;;;;;;;;;;;12.30;99.90;;;;;;5072579;28;19928;-91
2023/05/07 00:05:26;;;;;;;;;;;12.30;99.90;;;;;;5056978;28;19920;-90
2023/05/07 00:07:54;;;;;;;;;;;12.30;99.90;;;;;;5074986;28;19990;-90
2023/05/07 00:10:20;;;;;;;;;;;12.30;99.90;;;;;;5072491;28;19920;-91
2023/05/07 00:12:46;;;;;;;;;;;12.30;99.90;;;;;;5059333;28;19930;-90
2023/05/07 00:15:14;;;;;;;;;;;12.30;99.90;;;;;;5070603;28;19978;-90
2023/05/07 00:17:40;;;;;;;;;;;12.30;99.90;;;;;;5089549;28;19924;-90
2023/05/07 00:20:06;;;;;;;;;;;12.30;99.90;;;;;;5069687;28;19924;-89
2023/05/07 00:22:32;;;;;;;;;;;12.00;99.90;;;;;;5062525;28;19926;-88
2023/05/07 00:24:58;;;;;;;;;;;12.20;99.90;;;;;;5056191;28;20006;-90
2023/05/07 00:27:24;;;;;;;;;;;12.20;99.90;;;;;;5072673;28;19920;-90
2023/05/07 00:29:50;;;;;;;;;;;12.20;99.90;;;;;;5075371;28;20433;-89
2023/05/07 00:32:15;;;;;;;;;;;12.20;99.90;;;;;;5057707;28;19924;-91
2023/05/07 00:34:41;;;;;;;;;;;12.20;99.90;;;;;;5054864;28;19946;-90
2023/05/07 00:37:07;;;;;;;;;;;12.20;99.90;;;;;;5052009;28;19928;-90
2023/05/07 00:39:33;;;;;;;;;;;12.10;99.90;;;;;;5049610;28;19924;-89
2023/05/07 00:42:03;;;;;;;;;;;12.10;99.90;;;;;;5086490;28;19920;-90
2023/05/07 00:44:31;;;;;;;;;;;12.10;99.90;;;;;;5057579;28;20014;-90
2023/05/07 00:46:57;;;;;;;;;;;11.90;99.90;;;;;;5056042;28;19921;-90
2023/05/07 00:49:28;;;;;;;;;;;12.10;99.90;;;;;;5056477;28;19931;-91
2023/05/07 00:52:00;;;;;;;;;;;12.10;99.90;;;;;;5068148;28;19960;-90
2023/05/07 00:54:26;;;;;;;;;;;12.00;99.90;;;;;;5051450;28;20327;-91
2023/05/07 00:56:51;;;;;;;;;;;12.00;99.90;;;;;;5053043;28;19921;-90
2023/05/07 00:59:17;;;;;;;;;;;11.90;99.90;;;;;;5054786;28;20074;-90
2023/05/07 01:01:43;;;;;;;;;;;11.90;99.90;;;;;;5070732;28;20025;-90
2023/05/07 01:04:08;;;;;;;;;;;11.90;99.90;;;;;;5050386;28;19925;-91
2023/05/07 01:06:34;;;;;;;;;;;11.90;99.90;;;;;;5069564;28;19920;-91
2023/05/07 01:09:00;;;;;;;;;;;11.80;99.90;;;;;;5076793;28;19920;-91
2023/05/07 01:11:26;;;;;;;;;;;11.80;99.90;;;;;;5042931;28;19925;-89
2023/05/07 01:13:57;;;;;;;;;;;11.80;99.90;;;;;;5068611;28;19921;-91
2023/05/07 01:16:22;;;;;;;;;;;11.80;99.90;;;;;;5081741;28;19993;-91
2023/05/07 01:19:08;;;;;;;;;;;11.70;99.90;;;;;;5062375;28;19924;-89
2023/05/07 01:21:37;;;;;;;;;;;11.70;99.90;;;;;;5066626;28;20011;-90
2023/05/07 01:24:03;;;;;;;;;;;11.80;99.90;;;;;;5057635;28;19975;-89
2023/05/07 01:26:29;;;;;;;;;;;11.60;99.90;;;;;;5053047;28;19963;-90
2023/05/07 01:29:00;;;;;;;;;;;11.70;99.90;;;;;;5052212;28;20365;-90
2023/05/07 01:31:26;;;;;;;;;;;11.80;99.90;;;;;;5052172;28;19931;-89
2023/05/07 01:33:52;;;;;;;;;;;11.60;99.90;;;;;;5055026;28;19920;-89
2023/05/07 01:36:32;;;;;;;;;;;;;;;;;;;;;
2023/05/07 01:38:58;;;;;;;;;;;11.70;99.90;;;;;;5086452;28;19931;-91
2023/05/07 01:41:24;;;;;;;;;;;11.50;99.90;;;;;;5078158;28;19924;-91
2023/05/07 01:43:51;;;;;;;;;;;11.50;99.90;;;;;;5073821;28;19927;-89
2023/05/07 01:46:17;;;;;;;;;;;11.40;99.90;;;;;;5075383;28;19947;-90
2023/05/07 01:48:45;;;;;;;;;;;11.40;99.90;;;;;;5074553;28;19936;-90
2023/05/07 01:51:11;;;;;;;;;;;11.40;99.90;;;;;;5073785;28;19999;-90
2023/05/07 01:53:55;;;;;;;;;;;11.40;99.90;;;;;;5053215;28;20330;-91
2023/05/07 01:56:23;;;;;;;;;;;11.30;99.90;;;;;;5086019;28;20007;-89
2023/05/07 01:58:51;;;;;;;;;;;11.30;99.90;;;;;;5071459;28;19927;-88
2023/05/07 02:01:17;;;;;;;;;;;11.30;99.90;;;;;;5071538;28;19931;-91
2023/05/07 02:03:43;;;;;;;;;;;11.30;99.90;;;;;;5067592;28;19954;-90
2023/05/07 02:06:09;;;;;;;;;;;11.20;99.90;;;;;;5074292;28;19984;-91
2023/05/07 02:08:35;;;;;;;;;;;11.20;99.90;;;;;;5064233;28;20002;-91
2023/05/07 02:11:03;;;;;;;;;;;11.20;99.90;;;;;;5075758;28;19926;-91
2023/05/07 02:13:33;;;;;;;;;;;11.20;99.90;;;;;;5083993;28;19924;-91
2023/05/07 02:16:02;;;;;;;;;;;11.00;99.90;;;;;;5070355;28;19931;-91
2023/05/07 02:18:31;;;;;;;;;;;11.20;99.90;;;;;;5090912;28;20018;-91
2023/05/07 02:20:57;;;;;;;;;;;11.00;99.90;;;;;;5055347;28;20919;-92
2023/05/07 02:23:25;;;;;;;;;;;11.20;99.90;;;;;;5054565;28;20405;-92
2023/05/07 02:25:53;;;;;;;;;;;11.20;99.90;;;;;;5069298;28;19920;-91
2023/05/07 02:28:19;;;;;;;;;;;11.10;99.90;;;;;;5059157;28;19967;-91
2023/05/07 02:30:44;;;;;;;;;;;11.00;99.90;;;;;;5056651;28;19920;-92
2023/05/07 02:33:16;;;;;;;;;;;11.10;99.90;;;;;;5061852;28;19920;-92
2023/05/07 02:35:52;;;;;;;;;;;11.10;99.90;;;;;;5041692;28;19927;-93
2023/05/07 02:38:17;;;;;;;;;;;10.90;99.90;;;;;;5076559;28;19928;-94
2023/05/07 02:40:48;;;;;;;;;;;11.00;99.90;;;;;;5066389;28;19925;-92
2023/05/07 02:43:21;;;;;;;;;;;11.00;99.90;;;;;;5059571;28;20393;-92
2023/05/07 02:45:47;;;;;;;;;;;11.00;99.90;;;;;;5080161;28;19920;-93
2023/05/07 02:48:13;;;;;;;;;;;11.00;99.90;;;;;;5093072;28;19963;-91
2023/05/07 02:50:41;;;;;;;;;;;10.90;99.90;;;;;;5075621;28;19935;-92
2023/05/07 02:53:07;;;;;;;;;;;10.90;99.90;;;;;;5060197;28;19920;-92
2023/05/07 02:55:33;;;;;;;;;;;10.90;99.90;;;;;;5071524;28;19975;-93
2023/05/07 02:57:58;;;;;;;;;;;10.90;99.90;;;;;;5069233;28;20376;-90
2023/05/07 03:00:24;;;;;;;;;;;10.90;99.90;;;;;;5052181;28;20421;-91
2023/05/07 03:02:50;;;;;;;;;;;10.90;99.90;;;;;;5054529;28;19920;-92
2023/05/07 03:05:16;;;;;;;;;;;10.60;99.90;;;;;;5073966;28;19930;-93
2023/05/07 03:07:45;;;;;;;;;;;10.80;99.90;;;;;;5053579;28;19936;-91
2023/05/07 03:10:15;;;;;;;;;;;10.80;99.90;;;;;;5067649;28;19954;-92
2023/05/07 03:12:41;;;;;;;;;;;10.80;99.90;;;;;;5072520;28;19920;-93
2023/05/07 03:15:10;;;;;;;;;;;10.80;99.90;;;;;;5048921;28;20054;-91
2023/05/07 03:17:38;;;;;;;;;;;10.80;99.90;;;;;;5075987;28;20015;-92
2023/05/07 03:20:04;;;;;;;;;;;10.70;99.90;;;;;;5054911;28;19924;-91
2023/05/07 03:22:33;;;;;;;;;;;10.70;99.90;;;;;;5068649;28;20011;-92
2023/05/07 03:24:59;;;;;;;;;;;10.70;99.90;;;;;;5056024;28;20006;-93
2023/05/07 03:27:25;;;;;;;;;;;10.70;99.90;;;;;;5086772;28;20367;-91
2023/05/07 03:29:51;;;;;;;;;;;10.70;99.90;;;;;;5076176;28;19920;-92
2023/05/07 03:32:17;;;;;;;;;;;10.70;99.90;;;;;;5065008;28;19988;-93
2023/05/07 03:34:42;;;;;;;;;;;10.70;99.90;;;;;;5072653;28;19950;-93
2023/05/07 03:37:08;;;;;;;;;;;10.70;99.90;;;;;;5059566;28;20536;-91
2023/05/07 03:39:34;;;;;;;;;;;10.70;99.90;;;;;;5063333;28;19925;-92
2023/05/07 03:42:00;;;;;;;;;;;10.70;99.90;;;;;;5062633;28;19920;-93
2023/05/07 03:44:26;;;;;;;;;;;10.70;99.90;;;;;;5055505;28;19924;-93
2023/05/07 03:46:55;;;;;;;;;;;10.70;99.90;;;;;;5070208;28;19975;-91
2023/05/07 03:49:23;;;;;;;;;;;10.70;99.90;;;;;;5077269;28;19920;-92
2023/05/07 03:51:53;;;;;;;;;;;10.60;99.90;;;;;;5072766;28;19932;-91
2023/05/07 03:54:19;;;;;;;;;;;10.70;99.90;;;;;;5060141;28;19951;-91
2023/05/07 03:56:45;;;;;;;;;;;10.70;99.90;;;;;;5052621;28;19928;-90
2023/05/07 03:59:11;;;;;;;;;;;10.70;99.90;;;;;;5042411;28;19927;-91
2023/05/07 04:01:37;;;;;;;;;;;10.70;99.90;;;;;;5072127;28;20011;-91
2023/05/07 04:04:04;;;;;;;;;;;10.70;99.90;;;;;;5052658;28;19963;-92
2023/05/07 04:06:30;;;;;;;;;;;10.60;99.90;;;;;;5071099;28;19970;-92
2023/05/07 04:08:59;;;;;;;;;;;10.60;99.90;;;;;;5075492;28;19924;-91
2023/05/07 04:11:25;;;;;;;;;;;10.60;99.90;;;;;;5059737;28;19924;-91
2023/05/07 04:13:50;;;;;;;;;;;10.60;99.90;;;;;;5056100;28;19927;-89
2023/05/07 04:16:16;;;;;;;;;;;10.60;99.90;;;;;;5049504;28;19920;-90
2023/05/07 04:18:44;;;;;;;;;;;10.60;99.90;;;;;;5053725;28;19967;-90
2023/05/07 04:21:13;;;;;;;;;;;10.60;99.90;;;;;;5067999;28;19979;-90
2023/05/07 04:23:41;;;;;;;;;;;10.60;99.90;;;;;;5086019;28;20003;-91
2023/05/07 04:26:07;;;;;;;;;;;10.60;99.90;;;;;;5070371;28;19947;-90
2023/05/07 04:28:33;;;;;;;;;;;10.60;99.90;;;;;;5062891;28;20369;-90
2023/05/07 04:30:59;;;;;;;;;;;10.60;99.90;;;;;;5050041;28;19925;-90
2023/05/07 04:33:25;;;;;;;;;;;10.60;99.90;;;;;;5073538;28;19924;-91
2023/05/07 04:35:50;;;;;;;;;;;10.60;99.90;;;;;;5054486;28;19920;-90
2023/05/07 04:38:18;;;;;;;;;;;10.60;99.90;;;;;;5061436;28;20362;-91
2023/05/07 04:40:44;;;;;;;;;;;10.60;99.90;;;;;;5075023;28;19928;-91
2023/05/07 04:43:12;;;;;;;;;;;10.60;99.90;;;;;;5059268;28;21162;-91
2023/05/07 04:45:40;;;;;;;;;;;10.60;99.90;;;;;;5093528;28;20340;-90
2023/05/07 04:48:05;;;;;;;;;;;10.60;99.90;;;;;;5079600;28;19924;-90
2023/05/07 04:50:31;;;;;;;;;;;10.60;99.90;;;;;;5071721;28;20414;-89
2023/05/07 04:52:57;;;;;;;;;;;10.60;99.90;;;;;;5079347;28;19920;-90
2023/05/07 04:55:23;;;;;;;;;;;10.60;99.90;;;;;;5063415;28;20006;-89
2023/05/07 04:57:48;;;;;;;;;;;10.60;99.90;;;;;;5055828;28;19924;-90
2023/05/07 05:00:14;;;;;;;;;;;10.60;99.90;;;;;;5077358;28;19925;-90
2023/05/07 05:02:40;;;;;;;;;;;10.60;99.90;;;;;;5088484;28;20312;-91
2023/05/07 05:05:06;;;;;;;;;;;10.70;99.90;;;;;;5071796;28;19977;-92
2023/05/07 05:07:32;;;;;;;;;;;10.70;99.90;;;;;;5072537;28;19924;-91
2023/05/07 05:09:58;;;;;;;;;;;10.70;99.90;;;;;;5063216;28;19989;-90
2023/05/07 05:12:23;;;;;;;;;;;10.70;99.90;;;;;;5062125;28;19986;-89
2023/05/07 05:14:49;;;;;;;;;;;10.70;99.90;;;;;;5093605;28;19924;-90
2023/05/07 05:17:15;;;;;;;;;;;10.70;99.90;;;;;;5062059;28;19921;-90
2023/05/07 05:19:41;;;;;;;;;;;10.80;99.90;;;;;;5059543;28;20376;-89
2023/05/07 05:22:07;;;;;;;;;;;10.70;99.90;;;;;;5075621;28;20007;-90
2023/05/07 05:24:32;;;;;;;;;;;10.70;99.90;;;;;;5060879;28;19938;-91
2023/05/07 05:27:01;;;;;;;;;;;10.70;99.90;;;;;;5039856;28;19924;-90
2023/05/07 05:29:26;;;;;;;;;;;10.80;99.90;;;;;;5060123;28;19978;-88
2023/05/07 05:31:52;;;;;;;;;;;10.80;99.90;;;;;;5070821;28;19924;-90
2023/05/07 05:34:19;;;;;;;;;;;10.80;99.90;;;;;;5059711;28;20366;-91
2023/05/07 05:36:45;;;;;;;;;;;10.80;99.90;;;;;;5059117;28;19974;-89
2023/05/07 05:39:10;;;;;;;;;;;10.80;99.90;;;;;;5056635;28;19920;-91
2023/05/07 05:41:36;;;;;;;;;;;10.80;99.90;;;;;;5059946;28;20011;-90
2023/05/07 05:44:02;;;;;;;;;;;10.80;99.90;;;;;;5070998;28;20003;-90
2023/05/07 05:46:27;;;;;;;;;;;10.90;99.90;;;;;;5086393;28;19964;-90
2023/05/07 05:48:53;;;;;;;;;;;10.80;99.90;;;;;;5063294;28;19924;-89
2023/05/07 05:51:20;;;;;;;;;;;10.90;99.90;;;;;;5057425;28;19924;-90
2023/05/07 05:53:46;;;;;;;;;;;10.90;99.90;;;;;;5063331;28;19925;-90
2023/05/07 05:56:12;;;;;;;;;;;10.90;99.90;;;;;;5056769;28;19959;-89
2023/05/07 05:58:37;;;;;;;;;;;11.00;99.90;;;;;;5060692;28;19931;-89
2023/05/07 06:01:03;;;;;;;;;;;11.00;99.90;;;;;;5073987;28;20387;-91
2023/05/07 06:03:29;;;;;;;;;;;11.10;99.90;;;;;;5057678;28;19969;-92
2023/05/07 06:05:55;;;;;;;;;;;11.10;99.90;;;;;;5059137;28;19920;-90
2023/05/07 06:08:20;;;;;;;;;;;11.10;99.90;;;;;;5074885;28;19942;-90
2023/05/07 06:10:46;;;;;;;;;;;11.30;99.90;;;;;;5075400;28;19924;-91
2023/05/07 06:13:12;;;;;;;;;;;11.30;99.90;;;;;;5059861;28;19920;-90
2023/05/07 06:15:37;;;;;;;;;;;11.40;99.90;;;;;;5060943;28;20511;-90
2023/05/07 06:18:03;;;;;;;;;;;11.30;99.90;;;;;;5055266;28;19935;-90
2023/05/07 06:20:29;;;;;;;;;;;11.40;99.90;;;;;;5062585;28;20379;-90
2023/05/07 06:22:54;;;;;;;;;;;11.40;99.90;;;;;;5044800;28;19925;-90
2023/05/07 06:25:20;;;;;;;;;;;11.50;99.90;;;;;;5055105;28;20010;-90
2023/05/07 06:27:48;;;;;;;;;;;11.40;99.90;;;;;;5058864;28;20014;-88
2023/05/07 06:30:14;;;;;;;;;;;11.30;99.90;;;;;;5076332;28;19924;-88
2023/05/07 06:32:40;;;;;;;;;;;11.40;99.90;;;;;;5072455;28;19966;-89
2023/05/07 06:35:06;;;;;;;;;;;11.20;99.90;;;;;;5044361;28;19994;-90
2023/05/07 06:37:42;;;;;;;;;;;11.30;99.90;;;;;;5072021;28;19925;-92
2023/05/07 06:40:10;;;;;;;;;;;11.30;99.90;;;;;;5069415;28;19927;-90
2023/05/07 06:42:37;;;;;;;;;;;11.60;99.90;;;;;;5090531;28;19979;-91
2023/05/07 06:45:03;;;;;;;;;;;11.50;99.90;;;;;;5073905;28;19921;-91
2023/05/07 06:47:32;;;;;;;;;;;11.40;99.90;;;;;;5072053;28;19921;-89
2023/05/07 06:49:57;;;;;;;;;;;11.50;99.90;;;;;;5065439;28;19999;-90
2023/05/07 06:52:23;;;;;;;;;;;11.40;99.90;;;;;;5066980;28;19967;-91
2023/05/07 06:54:49;;;;;;;;;;;11.40;99.90;;;;;;5055586;28;19969;-90
2023/05/07 06:57:14;;;;;;;;;;;11.40;99.90;;;;;;5059684;28;20369;-89
2023/05/07 06:59:40;;;;;;;;;;;11.40;99.90;;;;;;5090487;28;19928;-91
2023/05/07 07:02:06;;;;;;;;;;;11.50;99.90;;;;;;5063888;28;19931;-92
2023/05/07 07:04:31;;;;;;;;;;;11.50;99.90;;;;;;5053691;28;19990;-88
2023/05/07 07:06:57;;;;;;;;;;;11.70;99.90;;;;;;5055204;28;19924;-92
2023/05/07 07:09:30;;;;;;;;;;;11.80;99.90;;;;;;5063453;28;19925;-88
2023/05/07 07:11:59;;;;;;;;;;;11.80;99.90;;;;;;5054837;28;19974;-88
2023/05/07 07:14:28;;;;;;;;;;;11.90;99.90;;;;;;5040208;28;20032;-89
2023/05/07 07:16:53;;;;;;;;;;;12.10;99.90;;;;;;5052626;28;20492;-87
2023/05/07 07:19:20;;;;;;;;;;;12.30;99.90;;;;;;5053320;28;19946;-85
2023/05/07 07:21:47;;;;;;;;;;;12.30;99.90;;;;;;5070347;28;20313;-86
2023/05/07 07:24:13;;;;;;;;;;;12.30;99.90;;;;;;5051589;28;19928;-87
2023/05/07 07:26:39;;;;;;;;;;;12.20;99.90;;;;;;5055181;28;19924;-87
2023/05/07 07:29:06;;;;;;;;;;;12.20;99.90;;;;;;5053915;28;20331;-86
2023/05/07 07:31:32;;;;;;;;;;;12.10;99.90;;;;;;5053017;28;20015;-86
2023/05/07 07:33:57;;;;;;;;;;;12.10;99.90;;;;;;5051333;28;20011;-90
2023/05/07 07:36:23;;;;;;;;;;;12.10;99.90;;;;;;5079372;28;19986;-90
2023/05/07 07:38:48;;;;;;;;;;;12.10;99.90;;;;;;5051245;28;19947;-92
2023/05/07 07:41:14;;;;;;;;;;;12.20;99.90;;;;;;5063725;28;19920;-90
2023/05/07 07:43:40;;;;;;;;;;;12.30;99.90;;;;;;5080416;28;19963;-93
2023/05/07 07:46:05;;;;;;;;;;;12.50;99.90;;;;;;5086875;28;19924;-91
2023/05/07 07:48:31;;;;;;;;;;;12.50;99.90;;;;;;5081289;28;19963;-91
2023/05/07 07:50:59;;;;;;;;;;;12.60;99.90;;;;;;5074225;28;19927;-90
2023/05/07 07:53:25;;;;;;;;;;;12.60;99.90;;;;;;5073565;28;19927;-89
2023/05/07 07:55:50;;;;;;;;;;;12.70;99.90;;;;;;5054329;28;19920;-91
2023/05/07 07:58:16;;;;;;;;;;;12.70;99.90;;;;;;5067570;28;19925;-90
2023/05/07 08:00:42;;;;;;;;;;;12.60;99.90;;;;;;5069696;28;20259;-90
2023/05/07 08:03:11;;;;;;;;;;;12.70;99.90;;;;;;5073510;28;20354;-90
2023/05/07 08:05:38;;;;;;;;;;;12.90;99.90;;;;;;5034729;28;19924;-88
2023/05/07 08:08:04;;;;;;;;;;;13.00;99.90;;;;;;5050274;28;20032;-88
2023/05/07 08:10:29;;;;;;;;;;;13.10;99.90;;;;;;5068265;28;20007;-88
2023/05/07 08:12:55;;;;;;;;;;;13.00;99.90;;;;;;5051574;28;19920;-88
2023/05/07 08:15:20;;;;;;;;;;;13.00;99.90;;;;;;5073570;28;19920;-93
2023/05/07 08:17:46;;;;;;;;;;;13.10;99.90;;;;;;5056354;28;19924;-91
2023/05/07 08:20:15;;;;;;;;;;;13.30;99.90;;;;;;5055672;28;19977;-93
2023/05/07 08:22:40;;;;;;;;;;;13.50;99.90;;;;;;5052667;28;19924;-90
2023/05/07 08:25:06;;;;;;;;;;;13.70;99.90;;;;;;5053643;28;19928;-87
2023/05/07 08:27:32;;;;;;;;;;;13.80;99.90;;;;;;5032306;28;20358;-90
2023/05/07 08:29:57;;;;;;;;;;;13.90;99.90;;;;;;5083975;28;19924;-87
2023/05/07 08:32:23;;;;;;;;;;;14.10;99.90;;;;;;5050398;28;19978;-90
2023/05/07 08:34:49;;;;;;;;;;;14.30;99.90;;;;;;5085903;28;19958;-89
2023/05/07 08:37:14;;;;;;;;;;;14.30;95.10;;;;;;5059557;28;19983;-89
2023/05/07 08:39:40;;;;;;;;;;;14.20;74.40;;;;;;5073673;28;19924;-91
2023/05/07 08:42:06;;;;;;;;;;;14.10;59.30;;;;;;5080822;28;19924;-89
2023/05/07 08:44:33;;;;;;;;;;;14.00;36.20;;;;;;5066352;28;19941;-88
2023/05/07 08:47:00;;;;;;;;;;;13.90;47.50;;;;;;5087514;28;20628;-85
2023/05/07 08:49:25;;;;;;;;;;;14.10;31.50;;;;;;5064385;28;19939;-91
2023/05/07 08:51:51;;;;;;;;;;;13.80;44.70;;;;;;5068121;28;19928;-90
2023/05/07 08:54:19;;;;;;;;;;;13.80;28.70;;;;;;5059950;28;19967;-89
2023/05/07 08:56:45;;;;;;;;;;;13.80;43.70;;;;;;5046996;28;19974;-87
2023/05/07 08:59:10;;;;;;;;;;;13.70;71.90;;;;;;5065188;28;19932;-87
2023/05/07 09:01:36;;;;;;;;;;;14.10;49.10;;;;;;5052853;28;19928;-86
2023/05/07 09:04:02;;;;;;;;;;;14.40;65.80;;;;;;5053299;28;20278;-84
2023/05/07 09:06:27;;;;;;;;;;;14.60;87.20;;;;;;5062434;28;19921;-89
2023/05/07 09:08:53;;;;;;;;;;;15.00;75.70;;;;;;5065891;28;19931;-89
2023/05/07 09:11:20;;;;;;;;;;;15.20;1.00;;;;;;5082213;28;19924;-90
2023/05/07 09:13:46;;;;;;;;;;;15.40;1.00;;;;;;5069487;28;19950;-89
2023/05/07 09:16:12;;;;;;;;;;;15.60;12.00;;;;;;5068188;28;19933;-88
2023/05/07 09:18:41;;;;;;;;;;;15.80;1.00;;;;;;5052777;28;20552;-85
2023/05/07 09:21:09;;;;;;;;;;;15.90;1.00;;;;;;5067318;28;20441;-88
2023/05/07 09:23:35;;;;;;;;;;;16.30;1.00;;;;;;5078773;28;19928;-87
2023/05/07 09:26:01;;;;;;;;;;;16.50;1.00;;;;;;5063244;28;20330;-88
2023/05/07 09:28:27;;;;;;;;;;;16.80;1.00;;;;;;5078914;28;19959;-88
2023/05/07 09:30:53;;;;;;;;;;;16.90;1.00;;;;;;5050058;28;20021;-88
2023/05/07 09:33:18;;;;;;;;;;;16.90;1.00;;;;;;5031666;28;19925;-87
2023/05/07 09:35:44;;;;;;;;;;;17.20;1.00;;;;;;5062652;28;19935;-87
2023/05/07 09:38:10;;;;;;;;;;;17.70;1.00;;;;;;5065554;28;20367;-88
2023/05/07 09:40:35;;;;;;;;;;;17.90;1.00;;;;;;5065464;28;19924;-89
2023/05/07 09:43:11;;;;;;;;;;;18.10;99.90;;;;;;5065859;28;19951;-90
2023/05/07 09:45:37;;;;;;;;;;;18.00;99.90;;;;;;5057364;28;20005;-90
2023/05/07 09:48:05;;;;;;;;;;;18.00;99.90;;;;;;5066092;28;19936;-86
2023/05/07 09:50:45;;;;;;;;;;;17.90;25.30;;;;;;5063825;28;19924;-87
2023/05/07 09:53:11;;;;;;;;;;;17.80;99.90;;;;;;5055190;28;19976;-86
2023/05/07 09:55:37;;;;;;;;;;;18.00;99.90;;;;;;5052664;28;19924;-87
2023/05/07 09:58:04;;;;;;;;;;;18.90;99.90;;;;;;5067254;28;19924;-88
2023/05/07 10:00:30;;;;;;;;;;;19.60;99.90;;;;;;5046388;28;19920;-88
2023/05/07 10:02:57;;;;;;;;;;;19.90;99.90;;;;;;5059377;28;19924;-88
2023/05/07 10:05:23;;;;;;;;;;;19.90;1.00;;;;;;5066573;28;19920;-88
2023/05/07 10:07:50;;;;;;;;;;;20.00;99.90;;;;;;5055790;28;19924;-87
2023/05/07 10:10:15;;;;;;;;;;;20.30;43.50;;;;;;5071115;28;20011;-89
2023/05/07 10:12:41;;;;;;;;;;;20.50;1.00;;;;;;5072046;28;20058;-88
2023/05/07 10:15:07;;;;;;;;;;;20.10;99.90;;;;;;5072593;28;19978;-87
2023/05/07 10:17:37;;;;;;;;;;;19.70;1.00;;;;;;5071585;28;19916;-87
2023/05/07 10:20:04;;;;;;;;;;;20.40;99.90;;;;;;5055037;28;19920;-88
2023/05/07 10:22:32;;;;;;;;;;;21.30;99.90;;;;;;5069678;28;19931;-88
2023/05/07 10:24:59;;;;;;;;;;;21.80;1.00;;;;;;5085793;28;19924;-87
2023/05/07 10:27:25;;;;;;;;;;;22.30;99.90;;;;;;5070592;28;19927;-87
2023/05/07 10:29:51;;;;;;;;;;;22.70;99.90;;;;;;5088022;28;20316;-87
2023/05/07 10:32:35;;;;;;;;;;;22.90;1.00;;;;;;5070925;28;19924;-86
2023/05/07 10:35:02;;;;;;;;;;;23.20;99.90;;;;;;5064613;28;19920;-87
2023/05/07 10:37:28;;;;;;;;;;;23.50;99.90;;;;;;5066574;28;20294;-88
2023/05/07 10:39:53;;;;;;;;;;;23.70;99.90;;;;;;5060932;28;19925;-88
2023/05/07 10:42:19;;;;;;;;;;;23.90;99.90;;;;;;5066701;28;20411;-87
2023/05/07 10:44:44;;;;;;;;;;;23.90;99.90;;;;;;5082061;28;19927;-86
2023/05/07 10:47:11;;;;;;;;;;;23.70;28.90;;;;;;5071115;28;19930;-87
2023/05/07 10:49:56;;;;;;;;;;;23.60;1.00;;;;;;5054116;28;20507;-87
2023/05/07 10:52:24;;;;;;;;;;;23.70;93.40;;;;;;5053429;28;19920;-87
2023/05/07 10:55:09;;;;;;;;;;;24.20;1.00;;;;;;5054960;28;19920;-88
2023/05/07 10:57:35;;;;;;;;;;;24.40;1.00;;;;;;5087721;28;19920;-87
2023/05/07 11:00:02;;;;;;;;;;;24.50;1.00;;;;;;5070753;28;19927;-88
2023/05/07 11:03:05;;;;;;;;;;;24.70;1.00;;;;;;5053392;28;20436;-87
2023/05/07 11:05:32;;;;;;;;;;;25.00;1.00;;;;;;5011466;28;19921;-89
2023/05/07 11:07:58;;;;;;;;;;;25.50;1.00;;;;;;5057154;28;19970;-88
2023/05/07 11:10:44;;;;;;;;;;;26.10;1.00;;;;;;5068587;28;20385;-88
2023/05/07 11:13:09;;;;;;;;;;;26.70;1.00;;;;;;5070734;28;19932;-88
2023/05/07 11:15:36;;;;;;;;;;;27.40;1.00;;;;;;5053036;28;19920;-88
2023/05/07 11:18:03;;;;;;;;;;;27.60;1.00;;;;;;5051512;28;20432;-88
2023/05/07 11:20:45;;;;;;;;;;;27.90;1.00;;;;;;5043082;28;20397;-87
2023/05/07 11:23:30;;;;;;;;;;;28.00;1.00;;;;;;5070784;28;19924;-88
2023/05/07 11:26:02;;;;;;;;;;;27.80;1.00;;;;;;5054265;28;19978;-88
2023/05/07 11:28:29;;;;;;;;;;;27.50;1.00;;;;;;5063306;28;20333;-87
2023/05/07 11:30:55;;;;;;;;;;;27.60;1.00;;;;;;5066941;28;20392;-88
2023/05/07 11:33:21;;;;;;;;;;;28.40;1.00;;;;;;5064139;28;19920;-88
2023/05/07 11:35:47;;;;;;;;;;;29.00;1.00;;;;;;5070313;28;19927;-89
2023/05/07 11:38:13;;;;;;;;;;;28.60;1.00;;;;;;5070076;28;19924;-89
2023/05/07 11:40:51;;;;;;;;;;;27.70;1.00;;;;;;5068910;28;19958;-88
2023/05/07 11:43:17;;;;;;;;;;;26.80;1.00;;;;;;5069617;28;19959;-88
2023/05/07 11:45:44;;;;;;;;;;;26.00;1.00;;;;;;5053079;28;19928;-87
2023/05/07 11:48:09;;;;;;;;;;;25.40;1.00;;;;;;5069928;28;20336;-87
2023/05/07 11:50:35;;;;;;;;;;;25.00;1.00;;;;;;5064644;28;19946;-87
2023/05/07 11:53:07;;;;;;;;;;;24.60;1.00;;;;;;5069503;28;19936;-90
2023/05/07 11:55:33;;;;;;;;;;;24.40;1.00;;;;;;5065409;28;19927;-89
2023/05/07 11:57:58;;;;;;;;;;;24.20;1.00;;;;;;5051641;28;19928;-90
2023/05/07 12:00:24;;;;;;;;;;;24.30;1.00;;;;;;5063492;28;19920;-88
2023/05/07 12:02:50;;;;;;;;;;;24.80;1.00;;;;;;5037124;28;19921;-90
2023/05/07 12:05:15;;;;;;;;;;;25.20;1.00;;;;;;5067214;28;19929;-90
2023/05/07 12:07:41;;;;;;;;;;;25.20;1.00;;;;;;5052320;28;19983;-90
2023/05/07 12:10:07;;;;;;;;;;;25.00;1.00;;;;;;5073767;28;19927;-89
2023/05/07 12:12:41;;;;;;;;;;;24.70;1.00;;;;;;5035679;28;19921;-87
2023/05/07 12:15:07;;;;;;;;;;;24.50;1.00;;;;;;5076850;28;19974;-89
2023/05/07 12:17:33;;;;;;;;;;;24.90;1.00;;;;;;5084215;28;19962;-87
2023/05/07 12:19:59;;;;;;;;;;;25.30;1.00;;;;;;5068345;28;19928;-88
2023/05/07 12:22:25;;;;;;;;;;;25.40;1.00;;;;;;5070581;28;19920;-88
2023/05/07 12:24:57;;;;;;;;;;;25.20;1.00;;;;;;5036013;28;20531;-93
2023/05/07 12:27:23;;;;;;;;;;;25.20;1.00;;;;;;5069052;28;19920;-87
2023/05/07 12:29:50;;;;;;;;;;;25.70;1.00;;;;;;5069048;28;19931;-87
2023/05/07 12:32:16;;;;;;;;;;;26.60;1.00;;;;;;5088281;28;19924;-87
2023/05/07 12:34:42;;;;;;;;;;;27.20;1.00;;;;;;5056200;28;19927;-87
2023/05/07 12:37:07;;;;;;;;;;;27.20;1.00;;;;;;5029133;28;19922;-88
2023/05/07 12:39:33;;;;;;;;;;;27.60;1.00;;;;;;5083376;28;19924;-89
2023/05/07 12:42:04;;;;;;;;;;;28.20;1.00;;;;;;5078263;28;19931;-88
2023/05/07 12:44:31;;;;;;;;;;;29.00;1.00;;;;;;5076598;28;19927;-91
2023/05/07 12:46:56;;;;;;;;;;;29.90;1.00;;;;;;5074169;28;19931;-90
2023/05/07 12:49:23;;;;;;;;;;;30.50;1.00;;;;;;5073944;28;19920;-90
2023/05/07 12:51:49;;;;;;;;;;;31.00;1.00;;;;;;5054711;28;19928;-90
2023/05/07 12:54:27;;;;;;;;;;;31.90;1.00;;;;;;5050543;28;19929;-89
2023/05/07 12:57:04;;;;;;;;;;;31.80;1.00;;;;;;5053285;28;19931;-90
2023/05/07 12:59:31;;;;;;;;;;;31.90;1.00;;;;;;5064764;28;20370;-90
2023/05/07 13:01:56;;;;;;;;;;;32.30;1.00;;;;;;5035765;28;19966;-91
2023/05/07 13:04:24;;;;;;;;;;;32.30;1.00;;;;;;5050861;28;19963;-91
2023/05/07 13:06:50;;;;;;;;;;;32.30;1.00;;;;;;5067982;28;19963;-87
2023/05/07 13:09:15;;;;;;;;;;;32.50;1.00;;;;;;5073130;28;19955;-89
2023/05/07 13:11:41;;;;;;;;;;;33.00;1.00;;;;;;5064004;28;19964;-85
2023/05/07 13:14:06;;;;;;;;;;;33.20;1.00;;;;;;5061922;28;19963;-89
2023/05/07 13:16:32;;;;;;;;;;;32.80;1.00;;;;;;5069197;28;19921;-88
2023/05/07 13:18:58;;;;;;;;;;;32.00;1.00;;;;;;5060131;28;19989;-88
2023/05/07 13:21:23;;;;;;;;;;;30.80;1.00;;;;;;5061515;28;19940;-88
2023/05/07 13:23:49;;;;;;;;;;;29.70;1.00;;;;;;5062522;28;19974;-87
2023/05/07 13:26:15;;;;;;;;;;;28.70;1.00;;;;;;5052678;28;19962;-89
2023/05/07 13:28:41;;;;;;;;;;;27.90;1.00;;;;;;5050006;28;19982;-89
2023/05/07 13:31:07;;;;;;;;;;;27.40;1.00;;;;;;5083424;28;19927;-88
2023/05/07 13:33:32;;;;;;;;;;;26.80;1.00;;;;;;5049924;28;20445;-89
2023/05/07 13:36:00;;;;;;;;;;;26.40;1.00;;;;;;5046990;28;19971;-89
2023/05/07 13:38:26;;;;;;;;;;;25.90;1.00;;;;;;5067867;28;19920;-90
2023/05/07 13:40:51;;;;;;;;;;;25.50;1.00;;;;;;5076045;28;19920;-91
2023/05/07 13:43:18;;;;;;;;;;;25.10;1.00;;;;;;5060284;28;19920;-90
2023/05/07 13:45:44;;;;;;;;;;;24.90;1.00;;;;;;5069602;28;19924;-89
2023/05/07 13:48:09;;;;;;;;;;;24.80;1.00;;;;;;5073404;28;19959;-89
2023/05/07 13:50:35;;;;;;;;;;;24.70;1.00;;;;;;5072106;28;19955;-92
2023/05/07 13:53:01;;;;;;;;;;;24.70;1.00;;;;;;5070038;28;19921;-90
2023/05/07 13:55:28;;;;;;;;;;;25.00;1.00;;;;;;5070531;28;19936;-90
2023/05/07 13:57:55;;;;;;;;;;;25.60;1.00;;;;;;5062601;28;19924;-86
2023/05/07 14:00:21;;;;;;;;;;;26.30;1.00;;;;;;5068399;28;19943;-90
2023/05/07 14:02:47;;;;;;;;;;;26.80;1.00;;;;;;5045127;28;19921;-90
2023/05/07 14:05:13;;;;;;;;;;;27.00;1.00;;;;;;5063358;28;19920;-90
2023/05/07 14:07:38;;;;;;;;;;;27.40;1.00;;;;;;5079247;28;20068;-90
2023/05/07 14:10:04;;;;;;;;;;;28.20;1.00;;;;;;5072267;28;20011;-90
2023/05/07 14:12:31;;;;;;;;;;;29.10;1.00;;;;;;5082769;28;19927;-92
2023/05/07 14:14:56;;;;;;;;;;;29.80;1.00;;;;;;5058020;28;19975;-91
2023/05/07 14:17:25;;;;;;;;;;;30.20;1.00;;;;;;5069583;28;20001;-90
2023/05/07 14:19:50;;;;;;;;;;;30.30;1.00;;;;;;5071457;28;20369;-87